Time;durP1;ratioP1;P1;durP2;ratioP2;P2;SDS_P1;SDS_P2;PMS_P1;PMS_P2;Temp;Humidity;BMP_temperature;BMP_pressure;BME280_temperature;BME280_humidity;BME280_pressure;Samples;Min_cycle;Max_cycle;Signal;HPM_P1;HPM_P2
2022/04/21 00:00:19;;;;;;;;;;;8.90;99.90;;;;;;5114052;28;19923;-61
2022/04/21 00:02:45;;;;;;;;;;;8.80;99.90;;;;;;5114252;28;19924;-61
2022/04/21 00:05:11;;;;;;;;;;;8.90;99.90;;;;;;5113930;28;20019;-61
2022/04/21 00:07:37;;;;;;;;;;;8.80;99.90;;;;;;5095265;28;19923;-61
2022/04/21 00:10:03;;;;;;;;;;;8.90;99.90;;;;;;5114168;28;20026;-61
2022/04/21 00:12:29;;;;;;;;;;;8.80;99.90;;;;;;5113943;28;19924;-61
2022/04/21 00:14:55;;;;;;;;;;;8.80;99.90;;;;;;5113515;28;19969;-61
2022/04/21 00:17:20;;;;;;;;;;;8.80;99.90;;;;;;5114121;28;19980;-61
2022/04/21 00:19:46;;;;;;;;;;;8.80;99.90;;;;;;5095284;28;20445;-61
2022/04/21 00:24:56;;;;;;;;;;;8.80;99.90;;;;;;5133546;27;19930;-61
2022/04/21 00:27:21;;;;;;;;;;;8.80;99.90;;;;;;5134093;27;20018;-61
2022/04/21 00:29:47;;;;;;;;;;;8.80;99.90;;;;;;5134587;27;19991;-61
2022/04/21 00:32:13;;;;;;;;;;;8.80;99.90;;;;;;5126542;27;19924;-61
2022/04/21 00:34:39;;;;;;;;;;;8.70;99.90;;;;;;5113113;28;19923;-61
2022/04/21 00:37:04;;;;;;;;;;;8.70;99.90;;;;;;5113899;28;19924;-61
2022/04/21 00:39:31;;;;;;;;;;;8.70;99.90;;;;;;5113662;28;20286;-61
2022/04/21 00:41:58;;;;;;;;;;;8.70;99.90;;;;;;5112973;28;19931;-61
2022/04/21 00:44:24;;;;;;;;;;;8.50;99.90;;;;;;5114136;28;20014;-61
2022/04/21 00:46:50;;;;;;;;;;;8.20;99.90;;;;;;5095125;28;20004;-61
2022/04/21 00:49:18;;;;;;;;;;;8.10;99.90;;;;;;5112651;28;19934;-61
2022/04/21 00:51:44;;;;;;;;;;;7.80;99.90;;;;;;5095498;28;20377;-61
2022/04/21 00:54:10;;;;;;;;;;;7.70;99.90;;;;;;5113701;28;19930;-61
2022/04/21 00:56:35;;;;;;;;;;;7.60;99.90;;;;;;5113220;28;20358;-61
2022/04/21 00:59:03;;;;;;;;;;;7.40;99.90;;;;;;5113232;28;20026;-61
2022/04/21 01:04:13;;;;;;;;;;;7.40;99.90;;;;;;5112720;28;20282;-60
2022/04/21 01:06:39;;;;;;;;;;;7.40;99.90;;;;;;5113688;28;19924;-61
2022/04/21 01:09:05;;;;;;;;;;;7.50;99.90;;;;;;5112212;28;19924;-61
2022/04/21 01:11:30;;;;;;;;;;;7.40;99.90;;;;;;5113475;28;19935;-61
2022/04/21 01:13:56;;;;;;;;;;;7.40;99.90;;;;;;5113731;28;20343;-61
2022/04/21 01:16:21;;;;;;;;;;;7.40;99.90;;;;;;5112608;28;19924;-61
2022/04/21 01:18:47;;;;;;;;;;;7.30;99.90;;;;;;5117921;28;20413;-61
2022/04/21 01:21:13;;;;;;;;;;;7.20;99.90;;;;;;5117940;28;20021;-61
2022/04/21 01:23:38;;;;;;;;;;;7.20;99.90;;;;;;5116411;28;20074;-61
2022/04/21 01:26:04;;;;;;;;;;;7.30;99.90;;;;;;5117407;28;19924;-61
2022/04/21 01:28:30;;;;;;;;;;;7.30;99.90;;;;;;5117231;28;19927;-61
2022/04/21 01:30:57;;;;;;;;;;;7.40;99.90;;;;;;5116545;28;20331;-61
2022/04/21 01:33:22;;;;;;;;;;;7.40;99.90;;;;;;5117279;28;19924;-61
2022/04/21 01:35:48;;;;;;;;;;;7.50;99.90;;;;;;5117295;28;20400;-61
2022/04/21 01:41:09;;;;;;;;;;;7.60;99.90;;;;;;5117211;28;19924;-61
2022/04/21 01:43:36;;;;;;;;;;;7.60;99.90;;;;;;5117202;28;20003;-61
2022/04/21 01:46:02;;;;;;;;;;;7.60;99.90;;;;;;5116227;28;19924;-61
2022/04/21 01:48:27;;;;;;;;;;;7.60;99.90;;;;;;5116865;28;19969;-60
2022/04/21 01:50:53;;;;;;;;;;;7.60;99.90;;;;;;5116943;28;19926;-61
2022/04/21 01:53:19;;;;;;;;;;;7.70;99.90;;;;;;5115221;28;19975;-61
2022/04/21 01:55:44;;;;;;;;;;;7.60;99.90;;;;;;5116251;28;19923;-61
2022/04/21 01:58:10;;;;;;;;;;;7.60;99.90;;;;;;5113842;28;19980;-61
2022/04/21 02:00:36;;;;;;;;;;;7.60;99.90;;;;;;5115865;28;19976;-60
2022/04/21 02:03:03;;;;;;;;;;;7.60;99.90;;;;;;5116421;28;19969;-61
2022/04/21 02:05:28;;;;;;;;;;;7.60;99.90;;;;;;5116389;28;19924;-61
2022/04/21 02:07:54;;;;;;;;;;;7.60;99.90;;;;;;5116597;28;19924;-61
2022/04/21 02:10:21;;;;;;;;;;;7.60;99.90;;;;;;5116205;28;19924;-61
2022/04/21 02:12:47;;;;;;;;;;;7.60;99.90;;;;;;5114911;28;19923;-61
2022/04/21 02:15:13;;;;;;;;;;;7.60;99.90;;;;;;5114891;28;19924;-61
2022/04/21 02:17:39;;;;;;;;;;;7.60;99.90;;;;;;5115211;28;20284;-61
2022/04/21 02:20:07;;;;;;;;;;;7.60;99.90;;;;;;5114632;28;19924;-61
2022/04/21 02:22:34;;;;;;;;;;;7.60;99.90;;;;;;5112944;28;19986;-61
2022/04/21 02:25:02;;;;;;;;;;;7.50;99.90;;;;;;5115046;28;20271;-61
2022/04/21 02:27:28;;;;;;;;;;;7.50;99.90;;;;;;5112717;28;19923;-61
2022/04/21 02:29:54;;;;;;;;;;;7.40;99.90;;;;;;5114909;28;20305;-60
2022/04/21 02:32:20;;;;;;;;;;;7.40;99.90;;;;;;5115278;28;19924;-61
2022/04/21 02:34:46;;;;;;;;;;;7.40;99.90;;;;;;5114442;28;19996;-61
2022/04/21 02:37:12;;;;;;;;;;;7.40;99.90;;;;;;5096037;28;20055;-61
2022/04/21 02:39:37;;;;;;;;;;;7.40;99.90;;;;;;5114875;28;19967;-61
2022/04/21 02:42:04;;;;;;;;;;;7.30;99.90;;;;;;5114640;28;19930;-60
2022/04/21 02:44:30;;;;;;;;;;;7.30;99.90;;;;;;5114605;28;20011;-61
2022/04/21 02:46:57;;;;;;;;;;;7.30;99.90;;;;;;5096364;28;19974;-60
2022/04/21 02:49:22;;;;;;;;;;;7.30;99.90;;;;;;5114300;28;19977;-61
2022/04/21 02:51:48;;;;;;;;;;;7.30;99.90;;;;;;5114849;28;19924;-61
2022/04/21 02:59:42;;;;;;;;;;;7.20;99.90;;;;;;5114633;28;19931;-61
2022/04/21 03:02:08;;;;;;;;;;;7.20;99.90;;;;;;5113659;28;19932;-61
2022/04/21 03:04:33;;;;;;;;;;;7.30;99.90;;;;;;5114436;28;20300;-60
2022/04/21 03:06:59;;;;;;;;;;;7.20;99.90;;;;;;5114519;28;20314;-61
2022/04/21 03:09:25;;;;;;;;;;;7.10;99.90;;;;;;5078577;28;20433;-61
2022/04/21 03:11:50;;;;;;;;;;;7.10;99.90;;;;;;5071919;28;811515;-61
2022/04/21 03:14:18;;;;;;;;;;;7.00;99.90;;;;;;5110686;28;19923;-61
2022/04/21 03:16:43;;;;;;;;;;;7.00;99.90;;;;;;5096656;28;19923;-61
2022/04/21 03:19:09;;;;;;;;;;;6.90;99.90;;;;;;5097299;28;20270;-60
2022/04/21 03:24:19;;;;;;;;;;;6.90;99.90;;;;;;5122848;27;20458;-60
2022/04/21 03:26:45;;;;;;;;;;;6.80;99.90;;;;;;5136018;27;19923;-60
2022/04/21 03:29:11;;;;;;;;;;;6.70;99.90;;;;;;5127866;27;19931;-60
2022/04/21 03:31:37;;;;;;;;;;;6.70;99.90;;;;;;5114364;28;19924;-60
2022/04/21 03:34:04;;;;;;;;;;;6.70;99.90;;;;;;5115043;28;19927;-60
2022/04/21 03:36:31;;;;;;;;;;;6.60;99.90;;;;;;5096829;28;19946;-60
2022/04/21 03:38:57;;;;;;;;;;;6.60;99.90;;;;;;5113552;28;19923;-61
2022/04/21 03:41:22;;;;;;;;;;;6.60;99.90;;;;;;5096608;28;19935;-61
2022/04/21 03:43:48;;;;;;;;;;;6.60;99.90;;;;;;5114177;28;19924;-60
2022/04/21 03:46:14;;;;;;;;;;;6.60;99.90;;;;;;5096056;28;20394;-60
2022/04/21 03:48:39;;;;;;;;;;;6.60;99.90;;;;;;5114918;28;19946;-61
2022/04/21 03:51:05;;;;;;;;;;;6.60;99.90;;;;;;5113875;28;19924;-60
2022/04/21 03:53:30;;;;;;;;;;;6.60;99.90;;;;;;5114961;28;19951;-61
2022/04/21 03:55:57;;;;;;;;;;;6.50;99.90;;;;;;5114204;28;19924;-60
2022/04/21 03:58:22;;;;;;;;;;;6.50;99.90;;;;;;5113535;28;19930;-60
2022/04/21 04:00:48;;;;;;;;;;;6.60;99.90;;;;;;5114333;28;20010;-61
2022/04/21 04:03:14;;;;;;;;;;;6.60;99.90;;;;;;5114691;28;19931;-60
2022/04/21 04:05:40;;;;;;;;;;;6.50;99.90;;;;;;5094617;28;19924;-60
2022/04/21 04:10:51;;;;;;;;;;;6.50;99.90;;;;;;5095946;28;20405;-60
2022/04/21 04:13:16;;;;;;;;;;;6.50;99.90;;;;;;5113102;28;19944;-60
2022/04/21 04:15:44;;;;;;;;;;;6.50;99.90;;;;;;5114483;28;19993;-60
2022/04/21 04:18:09;;;;;;;;;;;6.50;99.90;;;;;;5114427;28;19920;-61
2022/04/21 04:20:35;;;;;;;;;;;6.70;99.90;;;;;;5113199;28;20297;-61
2022/04/21 04:23:00;;;;;;;;;;;6.50;99.90;;;;;;5113837;28;19927;-60
2022/04/21 04:25:26;;;;;;;;;;;6.60;99.90;;;;;;5114334;28;19931;-60
2022/04/21 04:27:52;;;;;;;;;;;6.60;99.90;;;;;;5113061;28;19924;-60
2022/04/21 04:30:17;;;;;;;;;;;6.60;99.90;;;;;;5113900;28;20054;-60
2022/04/21 04:32:43;;;;;;;;;;;6.50;99.90;;;;;;5113678;28;20014;-60
2022/04/21 04:35:09;;;;;;;;;;;6.60;99.90;;;;;;5112961;28;20065;-60
2022/04/21 04:37:35;;;;;;;;;;;6.50;99.90;;;;;;5113636;28;19924;-60
2022/04/21 04:40:01;;;;;;;;;;;6.50;99.90;;;;;;5094574;28;20285;-61
2022/04/21 04:42:28;;;;;;;;;;;6.50;99.90;;;;;;5113671;28;20019;-61
2022/04/21 04:47:38;;;;;;;;;;;6.50;99.90;;;;;;5112861;28;20378;-60
2022/04/21 04:50:04;;;;;;;;;;;6.60;99.90;;;;;;5094589;28;20377;-61
2022/04/21 04:52:30;;;;;;;;;;;6.50;99.90;;;;;;5114149;28;20015;-60
2022/04/21 04:54:56;;;;;;;;;;;6.60;99.90;;;;;;5112765;28;20023;-61
2022/04/21 04:57:22;;;;;;;;;;;6.60;99.90;;;;;;5113482;28;19924;-61
2022/04/21 04:59:48;;;;;;;;;;;6.70;99.90;;;;;;5113522;28;19931;-60
2022/04/21 05:02:14;;;;;;;;;;;6.80;99.90;;;;;;5111902;28;20003;-61
2022/04/21 05:04:39;;;;;;;;;;;6.80;99.90;;;;;;5113607;28;20357;-60
2022/04/21 05:07:05;;;;;;;;;;;6.90;99.90;;;;;;5112880;28;19920;-60
2022/04/21 05:09:31;;;;;;;;;;;7.00;99.90;;;;;;5112702;28;20034;-60
2022/04/21 05:11:57;;;;;;;;;;;7.10;99.90;;;;;;5091746;28;20007;-60
2022/04/21 05:14:23;;;;;;;;;;;7.20;99.90;;;;;;5113147;28;19975;-60
2022/04/21 05:16:49;;;;;;;;;;;7.20;99.90;;;;;;5078722;28;19924;-60
2022/04/21 05:19:16;;;;;;;;;;;7.30;99.90;;;;;;5093308;28;19969;-60
2022/04/21 05:21:42;;;;;;;;;;;7.40;99.90;;;;;;5072642;28;20015;-60
2022/04/21 05:24:10;;;;;;;;;;;7.50;99.90;;;;;;5084161;28;19973;-60
2022/04/21 05:26:37;;;;;;;;;;;7.50;99.90;;;;;;5093152;28;19928;-60
2022/04/21 05:31:48;;;;;;;;;;;7.70;99.90;;;;;;5092994;28;19924;-61
2022/04/21 05:34:14;;;;;;;;;;;7.90;99.90;;;;;;5109369;28;19924;-60
2022/04/21 05:36:40;;;;;;;;;;;8.00;99.90;;;;;;5100754;28;19920;-60
2022/04/21 05:39:06;;;;;;;;;;;8.10;99.90;;;;;;5074585;28;19931;-61
2022/04/21 05:41:32;;;;;;;;;;;8.10;99.90;;;;;;5077799;28;19924;-60
2022/04/21 05:43:58;;;;;;;;;;;8.30;99.90;;;;;;5111098;28;19931;-61
2022/04/21 05:46:31;;;;;;;;;;;8.40;99.90;;;;;;5057864;28;19928;-60
2022/04/21 05:48:57;;;;;;;;;;;8.50;99.90;;;;;;5092857;28;19924;-61
2022/04/21 05:51:23;;;;;;;;;;;8.60;99.90;;;;;;5091253;28;19924;-61
2022/04/21 05:53:49;;;;;;;;;;;8.70;99.90;;;;;;5074580;28;19931;-60
2022/04/21 05:56:15;;;;;;;;;;;8.80;99.90;;;;;;5092884;28;20019;-60
2022/04/21 05:58:41;;;;;;;;;;;8.90;99.90;;;;;;5091724;28;20015;-60
2022/04/21 06:01:08;;;;;;;;;;;9.00;99.90;;;;;;5109715;28;20282;-61
2022/04/21 06:03:34;;;;;;;;;;;9.10;99.90;;;;;;5095140;28;19930;-60
2022/04/21 06:06:00;;;;;;;;;;;9.30;99.90;;;;;;5077156;28;19928;-61
2022/04/21 06:08:26;;;;;;;;;;;9.50;99.90;;;;;;5095655;28;20404;-60
2022/04/21 06:10:51;;;;;;;;;;;9.50;99.90;;;;;;5096334;28;20002;-61
2022/04/21 06:13:18;;;;;;;;;;;9.60;99.90;;;;;;5077112;28;19924;-61
2022/04/21 06:15:43;;;;;;;;;;;9.80;99.90;;;;;;5090433;28;19971;-60
2022/04/21 06:18:09;;;;;;;;;;;10.00;99.90;;;;;;5089716;28;19967;-60
2022/04/21 06:20:35;;;;;;;;;;;10.00;99.90;;;;;;5077137;28;19932;-61
2022/04/21 06:23:01;;;;;;;;;;;10.10;99.90;;;;;;5099259;28;19950;-60
2022/04/21 06:25:27;;;;;;;;;;;10.20;99.90;;;;;;5114004;28;19923;-61
2022/04/21 06:27:53;;;;;;;;;;;10.40;99.90;;;;;;5095829;28;20378;-61
2022/04/21 06:30:19;;;;;;;;;;;10.50;99.90;;;;;;5096038;28;19924;-61
2022/04/21 06:32:45;;;;;;;;;;;10.60;99.90;;;;;;5095071;28;19989;-61
2022/04/21 06:35:11;;;;;;;;;;;10.70;99.90;;;;;;5102063;28;20384;-61
2022/04/21 06:37:37;;;;;;;;;;;10.80;99.90;;;;;;5096015;28;19924;-60
2022/04/21 06:40:03;;;;;;;;;;;11.00;99.90;;;;;;5076770;28;19930;-61
2022/04/21 06:42:29;;;;;;;;;;;11.10;99.90;;;;;;5095511;28;19931;-61
2022/04/21 06:50:23;;;;;;;;;;;11.50;99.90;;;;;;5095277;28;20192;-60
2022/04/21 06:52:48;;;;;;;;;;;11.70;99.90;;;;;;5102955;28;19924;-61
2022/04/21 06:55:14;;;;;;;;;;;11.80;99.90;;;;;;5115198;28;19927;-61
2022/04/21 06:57:40;;;;;;;;;;;11.90;99.90;;;;;;5097460;28;20431;-60
2022/04/21 07:00:06;;;;;;;;;;;12.00;99.90;;;;;;5115566;28;20393;-60
2022/04/21 07:02:32;;;;;;;;;;;12.20;99.90;;;;;;5112356;28;20289;-61
2022/04/21 07:05:02;;;;;;;;;;;12.30;99.90;;;;;;5077278;28;20348;-61
2022/04/21 07:07:28;;;;;;;;;;;12.50;99.90;;;;;;5077036;28;19945;-61
2022/04/21 07:09:56;;;;;;;;;;;12.60;99.90;;;;;;5096218;28;19935;-61
2022/04/21 07:12:29;;;;;;;;;;;12.70;99.90;;;;;;5114976;28;19928;-61
2022/04/21 07:14:57;;;;;;;;;;;12.80;99.90;;;;;;5095272;28;20412;-61
2022/04/21 07:17:22;;;;;;;;;;;12.90;99.90;;;;;;5077873;28;20278;-61
2022/04/21 07:19:48;;;;;;;;;;;13.00;99.90;;;;;;5094211;28;19924;-61
2022/04/21 07:22:14;;;;;;;;;;;13.10;99.90;;;;;;5087953;28;19971;-61
2022/04/21 07:24:39;;;;;;;;;;;13.20;99.90;;;;;;5109050;28;20327;-61
2022/04/21 07:27:05;;;;;;;;;;;13.30;99.90;;;;;;5114819;28;19968;-61
2022/04/21 07:29:31;;;;;;;;;;;13.30;99.90;;;;;;5095151;28;19928;-61
2022/04/21 07:31:57;;;;;;;;;;;13.40;99.90;;;;;;5115391;28;19948;-61
2022/04/21 07:34:23;;;;;;;;;;;13.50;99.90;;;;;;5108916;28;19924;-61
2022/04/21 07:36:49;;;;;;;;;;;13.60;99.90;;;;;;5095832;28;20393;-61
2022/04/21 07:39:15;;;;;;;;;;;13.70;99.90;;;;;;5114963;28;19930;-61
2022/04/21 07:41:41;;;;;;;;;;;13.70;99.90;;;;;;5096367;28;19963;-61
2022/04/21 07:44:07;;;;;;;;;;;13.80;99.90;;;;;;5114293;28;20365;-61
2022/04/21 07:46:33;;;;;;;;;;;13.90;99.90;;;;;;5100711;28;19924;-61
2022/04/21 07:51:43;;;;;;;;;;;14.10;99.90;;;;;;5072288;28;19975;-61
2022/04/21 07:54:09;;;;;;;;;;;14.20;99.90;;;;;;5079464;28;19976;-61
2022/04/21 07:56:35;;;;;;;;;;;14.30;99.90;;;;;;5095990;28;19928;-61
2022/04/21 07:59:00;;;;;;;;;;;14.40;99.90;;;;;;5088955;28;20297;-61
2022/04/21 08:01:26;;;;;;;;;;;14.50;99.90;;;;;;5076562;28;20007;-62
2022/04/21 08:03:52;;;;;;;;;;;14.60;99.90;;;;;;5067601;28;19924;-61
2022/04/21 08:06:17;;;;;;;;;;;14.80;99.90;;;;;;5076234;28;19930;-62
2022/04/21 08:08:43;;;;;;;;;;;14.90;99.90;;;;;;5093268;28;20374;-61
2022/04/21 08:11:09;;;;;;;;;;;15.00;99.90;;;;;;5090194;28;19931;-62
2022/04/21 08:13:34;;;;;;;;;;;15.00;99.90;;;;;;5102820;28;20493;-61
2022/04/21 08:16:00;;;;;;;;;;;15.10;99.90;;;;;;5092461;28;19929;-61
2022/04/21 08:18:26;;;;;;;;;;;15.20;99.60;;;;;;5087679;28;20328;-61
2022/04/21 08:20:57;;;;;;;;;;;15.30;99.50;;;;;;5082502;28;20369;-61
2022/04/21 08:23:24;;;;;;;;;;;15.40;99.80;;;;;;5071611;28;19929;-61
2022/04/21 08:34:03;;;;;;;;;;;15.80;98.90;;;;;;5091334;28;19928;-61
2022/04/21 08:36:29;;;;;;;;;;;15.90;99.10;;;;;;5091159;28;19947;-61
2022/04/21 08:38:55;;;;;;;;;;;16.00;98.50;;;;;;5099651;28;19947;-61
2022/04/21 08:41:26;;;;;;;;;;;16.00;96.30;;;;;;5070588;28;19925;-61
2022/04/21 08:43:53;;;;;;;;;;;15.80;96.70;;;;;;5083741;28;19931;-61
2022/04/21 08:46:21;;;;;;;;;;;15.90;97.10;;;;;;5092465;28;19931;-61
2022/04/21 08:48:49;;;;;;;;;;;15.90;97.10;;;;;;5100115;28;19931;-61
2022/04/21 08:51:14;;;;;;;;;;;16.10;97.20;;;;;;5090373;28;19977;-63
2022/04/21 08:53:41;;;;;;;;;;;16.30;96.80;;;;;;5091921;28;19944;-61
2022/04/21 08:56:06;;;;;;;;;;;16.30;95.10;;;;;;5093767;28;19939;-61
2022/04/21 08:58:32;;;;;;;;;;;16.40;95.60;;;;;;5094367;28;19924;-61
2022/04/21 09:00:58;;;;;;;;;;;16.40;94.50;;;;;;5112524;28;19927;-61
2022/04/21 09:03:24;;;;;;;;;;;16.50;94.60;;;;;;5103941;28;20247;-61
2022/04/21 09:05:49;;;;;;;;;;;16.60;94.90;;;;;;5092720;28;19931;-61
2022/04/21 09:08:22;;;;;;;;;;;16.80;94.90;;;;;;5090843;28;19932;-61
2022/04/21 09:11:00;;;;;;;;;;;16.90;94.30;;;;;;5096607;28;20301;-62
2022/04/21 09:13:34;;;;;;;;;;;17.10;94.60;;;;;;5084590;28;20290;-61
2022/04/21 09:16:00;;;;;;;;;;;17.20;94.80;;;;;;5072451;28;20294;-61
2022/04/21 09:18:34;;;;;;;;;;;17.30;93.80;;;;;;5072713;28;19925;-61
2022/04/21 09:21:05;;;;;;;;;;;17.40;92.70;;;;;;5055105;28;20383;-61
2022/04/21 09:23:32;;;;;;;;;;;17.40;91.30;;;;;;5083432;28;20417;-61
2022/04/21 09:26:05;;;;;;;;;;;17.40;91.10;;;;;;5103861;28;19931;-62
2022/04/21 09:28:31;;;;;;;;;;;17.50;91.90;;;;;;5073830;28;19931;-61
2022/04/21 09:30:58;;;;;;;;;;;17.60;90.80;;;;;;5095479;28;19924;-61
2022/04/21 09:33:25;;;;;;;;;;;17.70;90.00;;;;;;5103348;28;19932;-62
2022/04/21 09:35:51;;;;;;;;;;;17.70;89.80;;;;;;5082445;28;19932;-62
2022/04/21 09:38:18;;;;;;;;;;;17.80;89.90;;;;;;5102250;28;20259;-62
2022/04/21 09:40:44;;;;;;;;;;;17.90;88.30;;;;;;5102376;28;20402;-61
2022/04/21 09:43:10;;;;;;;;;;;18.00;87.70;;;;;;5088624;28;19924;-61
2022/04/21 09:48:22;;;;;;;;;;;18.10;84.90;;;;;;5063715;28;19923;-62
2022/04/21 09:50:51;;;;;;;;;;;18.10;85.10;;;;;;5091612;28;20385;-62
2022/04/21 09:53:19;;;;;;;;;;;18.10;83.20;;;;;;5098460;28;19924;-61
2022/04/21 09:55:46;;;;;;;;;;;18.20;82.90;;;;;;5083555;28;19924;-62
2022/04/21 09:58:12;;;;;;;;;;;18.30;81.50;;;;;;5105909;28;19949;-62
2022/04/21 10:00:39;;;;;;;;;;;18.30;80.20;;;;;;5108726;28;19924;-62
2022/04/21 10:03:05;;;;;;;;;;;18.40;82.50;;;;;;5104146;28;19924;-62
2022/04/21 10:05:31;;;;;;;;;;;18.60;82.60;;;;;;5103181;28;19977;-61
2022/04/21 10:08:01;;;;;;;;;;;18.80;84.60;;;;;;5088396;28;19923;-61
2022/04/21 10:10:29;;;;;;;;;;;18.90;80.40;;;;;;5098885;28;19947;-61
2022/04/21 10:12:55;;;;;;;;;;;18.90;76.50;;;;;;5096065;28;19969;-61
2022/04/21 10:15:21;;;;;;;;;;;18.90;76.10;;;;;;5096290;28;19924;-61
2022/04/21 10:17:46;;;;;;;;;;;18.90;72.20;;;;;;5093141;28;20054;-62
2022/04/21 10:20:12;;;;;;;;;;;18.90;70.70;;;;;;5077749;28;20370;-62
2022/04/21 10:22:38;;;;;;;;;;;19.10;70.40;;;;;;5068419;28;19931;-62
2022/04/21 10:25:06;;;;;;;;;;;19.60;71.40;;;;;;5067700;28;20382;-61
2022/04/21 10:27:37;;;;;;;;;;;20.00;66.80;;;;;;5060080;28;19924;-62
2022/04/21 10:30:09;;;;;;;;;;;20.40;64.00;;;;;;5095987;28;20302;-62
2022/04/21 10:33:01;;;;;;;;;;;20.80;61.10;;;;;;5076487;28;20774;-62
2022/04/21 10:35:28;;;;;;;;;;;21.30;60.20;;;;;;5067427;28;19925;-62
2022/04/21 10:38:12;;;;;;;;;;;22.10;57.60;;;;;;5058510;28;19920;-61
2022/04/21 10:40:54;;;;;;;;;;;22.70;56.40;;;;;;5074920;28;20394;-62
2022/04/21 10:43:20;;;;;;;;;;;23.30;54.30;;;;;;5075576;28;19925;-62
2022/04/21 10:46:01;;;;;;;;;;;23.70;51.80;;;;;;5073557;28;19925;-62
2022/04/21 10:48:43;;;;;;;;;;;24.00;51.20;;;;;;5055069;28;19994;-61
2022/04/21 10:51:09;;;;;;;;;;;23.90;50.70;;;;;;5060768;28;19939;-62
2022/04/21 10:59:29;;;;;;;;;;;25.30;47.90;;;;;;5095263;28;19924;-62
2022/04/21 11:01:55;;;;;;;;;;;25.30;48.10;;;;;;5094087;28;19924;-62
2022/04/21 11:04:22;;;;;;;;;;;25.60;47.20;;;;;;5078058;28;20330;-62
2022/04/21 11:06:49;;;;;;;;;;;26.00;46.30;;;;;;5074246;28;19925;-62
2022/04/21 11:09:35;;;;;;;;;;;26.30;45.70;;;;;;5080316;28;19920;-62
2022/04/21 11:12:02;;;;;;;;;;;26.20;44.90;;;;;;5094957;28;19928;-62
2022/04/21 11:14:29;;;;;;;;;;;26.30;44.90;;;;;;5094468;28;20387;-62
2022/04/21 11:16:55;;;;;;;;;;;26.20;43.40;;;;;;5061125;28;20447;-62
2022/04/21 11:19:31;;;;;;;;;;;26.30;44.20;;;;;;5072748;28;20433;-62
2022/04/21 11:21:58;;;;;;;;;;;26.50;43.00;;;;;;5072465;28;19925;-62
2022/04/21 11:24:25;;;;;;;;;;;26.90;43.70;;;;;;5057681;28;20303;-62
2022/04/21 11:26:57;;;;;;;;;;;26.80;41.50;;;;;;5058664;28;19928;-62
2022/04/21 11:29:23;;;;;;;;;;;26.50;42.10;;;;;;5073666;28;19976;-62
2022/04/21 11:31:54;;;;;;;;;;;26.40;43.50;;;;;;5060607;28;19960;-62
2022/04/21 11:34:22;;;;;;;;;;;26.70;42.70;;;;;;5094363;28;19924;-62
2022/04/21 11:36:47;;;;;;;;;;;27.20;42.50;;;;;;5060627;28;19925;-62
2022/04/21 11:39:13;;;;;;;;;;;27.40;41.60;;;;;;5052360;28;19978;-62
2022/04/21 11:41:41;;;;;;;;;;;26.90;42.50;;;;;;5054118;28;19924;-62
2022/04/21 11:44:06;;;;;;;;;;;25.90;43.00;;;;;;5035790;28;19925;-62
2022/04/21 11:46:36;;;;;;;;;;;25.00;44.00;;;;;;5058475;28;19948;-62
2022/04/21 11:49:03;;;;;;;;;;;24.20;45.40;;;;;;5072104;28;19935;-62
2022/04/21 11:51:29;;;;;;;;;;;23.70;46.60;;;;;;5074160;28;19925;-62
2022/04/21 11:53:56;;;;;;;;;;;23.50;47.00;;;;;;5056928;28;20447;-62
2022/04/21 11:56:21;;;;;;;;;;;23.70;47.50;;;;;;5055283;28;19936;-62
2022/04/21 11:58:47;;;;;;;;;;;24.20;47.00;;;;;;5062790;28;20283;-62
2022/04/21 12:06:47;;;;;;;;;;;25.30;45.60;;;;;;5055605;28;20363;-62
2022/04/21 12:09:14;;;;;;;;;;;26.50;44.60;;;;;;5073204;28;19932;-62
2022/04/21 12:11:41;;;;;;;;;;;27.40;43.00;;;;;;5064825;28;20354;-62
2022/04/21 12:14:06;;;;;;;;;;;28.20;42.50;;;;;;5075391;28;19931;-62
2022/04/21 12:16:34;;;;;;;;;;;29.10;42.20;;;;;;5093768;28;19924;-62
2022/04/21 12:19:12;;;;;;;;;;;29.40;40.30;;;;;;5092881;28;20584;-62
2022/04/21 12:21:38;;;;;;;;;;;29.40;38.90;;;;;;5072926;28;19933;-62
2022/04/21 12:24:12;;;;;;;;;;;29.50;39.20;;;;;;5077679;28;20014;-62
2022/04/21 12:26:37;;;;;;;;;;;29.40;40.10;;;;;;5093790;28;19924;-62
2022/04/21 12:29:07;;;;;;;;;;;29.70;40.40;;;;;;5074450;28;19920;-62
2022/04/21 12:31:43;;;;;;;;;;;30.10;39.30;;;;;;5093537;28;19924;-62
2022/04/21 12:34:11;;;;;;;;;;;30.20;37.10;;;;;;5093744;28;20366;-63
2022/04/21 12:36:37;;;;;;;;;;;30.20;37.50;;;;;;5080017;28;19932;-62
2022/04/21 12:39:03;;;;;;;;;;;30.00;37.50;;;;;;5088739;28;19924;-63
2022/04/21 12:41:29;;;;;;;;;;;29.60;38.00;;;;;;5078061;28;20371;-62
2022/04/21 12:43:55;;;;;;;;;;;29.50;39.40;;;;;;5040772;28;19928;-62
2022/04/21 12:46:20;;;;;;;;;;;29.90;38.80;;;;;;5089157;28;19932;-63
2022/04/21 12:48:48;;;;;;;;;;;30.30;39.70;;;;;;5093056;28;20022;-62
2022/04/21 12:51:19;;;;;;;;;;;30.50;38.30;;;;;;5074541;28;19924;-63
2022/04/21 12:53:53;;;;;;;;;;;30.50;37.70;;;;;;5074091;28;19977;-63
2022/04/21 12:56:18;;;;;;;;;;;30.30;37.00;;;;;;5074255;28;19964;-63
2022/04/21 12:58:54;;;;;;;;;;;29.90;36.80;;;;;;5074530;28;19975;-63
2022/04/21 13:01:19;;;;;;;;;;;29.60;38.60;;;;;;5092646;28;19928;-63
2022/04/21 13:03:45;;;;;;;;;;;29.60;38.90;;;;;;5053391;28;19921;-62
2022/04/21 13:06:11;;;;;;;;;;;29.50;38.40;;;;;;5058038;28;19932;-63
2022/04/21 13:08:36;;;;;;;;;;;29.40;38.70;;;;;;5054272;28;20375;-63
2022/04/21 13:11:02;;;;;;;;;;;29.00;39.20;;;;;;5078220;28;20434;-62
2022/04/21 13:13:29;;;;;;;;;;;29.00;39.50;;;;;;5097141;28;19923;-63
2022/04/21 13:15:55;;;;;;;;;;;29.20;40.40;;;;;;5117506;28;19930;-63
2022/04/21 13:18:22;;;;;;;;;;;29.60;39.90;;;;;;5117877;28;19928;-63
2022/04/21 13:23:31;;;;;;;;;;;29.50;39.70;;;;;;5076387;28;19924;-63
2022/04/21 13:25:58;;;;;;;;;;;29.60;40.00;;;;;;5088074;28;19925;-63
2022/04/21 13:28:24;;;;;;;;;;;29.50;39.60;;;;;;5078780;28;20379;-63
2022/04/21 13:33:21;;;;;;;;;;;29.20;40.00;;;;;;5088275;28;19923;-63
2022/04/21 13:33:35;;;;;;;;;;;29.10;39.60;;;;;;5076104;28;20416;-63
2022/04/21 13:36:02;;;;;;;;;;;29.10;40.40;;;;;;5083853;28;19977;-63
2022/04/21 13:38:27;;;;;;;;;;;28.90;39.50;;;;;;5075180;28;19932;-63
2022/04/21 13:40:53;;;;;;;;;;;28.60;40.40;;;;;;5107912;28;19924;-63
2022/04/21 13:43:19;;;;;;;;;;;28.40;40.50;;;;;;5116159;28;19946;-63
2022/04/21 13:45:44;;;;;;;;;;;28.20;40.70;;;;;;5116330;28;19969;-63
2022/04/21 13:48:10;;;;;;;;;;;27.80;41.20;;;;;;5098925;28;20393;-63
2022/04/21 13:50:36;;;;;;;;;;;27.80;41.70;;;;;;5097694;28;20010;-63
2022/04/21 13:53:03;;;;;;;;;;;27.80;41.10;;;;;;5095079;28;19951;-63
2022/04/21 13:55:31;;;;;;;;;;;28.00;41.90;;;;;;5077485;28;19971;-63
2022/04/21 13:57:57;;;;;;;;;;;28.20;41.20;;;;;;5090693;28;20010;-63
2022/04/21 14:00:24;;;;;;;;;;;28.10;40.60;;;;;;5096562;28;20377;-63
2022/04/21 14:02:49;;;;;;;;;;;27.90;40.80;;;;;;5096621;28;19924;-63
2022/04/21 14:05:15;;;;;;;;;;;28.20;41.50;;;;;;5096207;28;20400;-63
2022/04/21 14:07:41;;;;;;;;;;;28.40;40.50;;;;;;5095769;28;20010;-63
2022/04/21 14:10:06;;;;;;;;;;;28.30;40.20;;;;;;5110015;28;19924;-63
2022/04/21 14:12:32;;;;;;;;;;;28.30;40.40;;;;;;5094121;28;19924;-63
2022/04/21 14:14:58;;;;;;;;;;;28.50;41.10;;;;;;5102849;28;19924;-63
2022/04/21 14:17:23;;;;;;;;;;;28.60;40.80;;;;;;5115510;28;19930;-63
2022/04/21 14:19:49;;;;;;;;;;;28.60;40.30;;;;;;5116359;28;19935;-63
2022/04/21 14:22:15;;;;;;;;;;;28.80;40.80;;;;;;5090891;28;19924;-63
2022/04/21 14:24:40;;;;;;;;;;;29.00;40.20;;;;;;5088656;28;19935;-63
2022/04/21 14:27:06;;;;;;;;;;;29.10;40.20;;;;;;5095896;28;19931;-63
2022/04/21 14:29:32;;;;;;;;;;;29.20;40.20;;;;;;5081744;28;19928;-63
2022/04/21 14:31:58;;;;;;;;;;;29.20;40.20;;;;;;5103360;28;19928;-63
2022/04/21 14:34:25;;;;;;;;;;;29.20;40.20;;;;;;5102027;28;19989;-63
2022/04/21 14:36:51;;;;;;;;;;;28.70;40.10;;;;;;5103942;28;19933;-63
2022/04/21 14:44:45;;;;;;;;;;;27.00;43.10;;;;;;5075692;28;20316;-63
2022/04/21 14:47:11;;;;;;;;;;;26.50;43.60;;;;;;5072182;28;19937;-63
2022/04/21 14:49:37;;;;;;;;;;;26.00;44.30;;;;;;5103884;28;19932;-63
2022/04/21 14:52:05;;;;;;;;;;;25.40;45.10;;;;;;5104235;28;20429;-62
2022/04/21 14:54:31;;;;;;;;;;;24.80;46.30;;;;;;5096812;28;19935;-63
2022/04/21 14:56:56;;;;;;;;;;;24.20;47.30;;;;;;5094848;28;19924;-63
2022/04/21 14:59:22;;;;;;;;;;;23.70;49.00;;;;;;5095526;28;20432;-62
2022/04/21 15:01:48;;;;;;;;;;;23.30;49.60;;;;;;5075123;28;19931;-63
2022/04/21 15:04:14;;;;;;;;;;;22.90;49.80;;;;;;5091203;28;19924;-63
2022/04/21 15:06:43;;;;;;;;;;;22.60;50.60;;;;;;5100938;28;20006;-63
2022/04/21 15:09:09;;;;;;;;;;;22.50;51.30;;;;;;5102639;28;19934;-62
2022/04/21 15:11:35;;;;;;;;;;;22.30;52.10;;;;;;5098435;28;19924;-63
2022/04/21 15:14:01;;;;;;;;;;;22.00;52.60;;;;;;5098489;28;19924;-63
2022/04/21 15:16:27;;;;;;;;;;;21.80;53.30;;;;;;5102277;28;19926;-63
2022/04/21 15:18:52;;;;;;;;;;;21.60;54.10;;;;;;5112536;28;19924;-62
2022/04/21 15:21:18;;;;;;;;;;;21.50;54.90;;;;;;5092947;28;19924;-63